Time;durP1;ratioP1;P1;durP2;ratioP2;P2;SDS_P1;SDS_P2;PMS_P1;PMS_P2;Temp;Humidity;BMP_temperature;BMP_pressure;BME280_temperature;BME280_humidity;BME280_pressure;Samples;Min_cycle;Max_cycle;Signal;HPM_P1;HPM_P2
2022/06/01 00:02:08;;;;;;;59.65;30.75;;;;;;;23.03;48.73;99858.56;5028010;28;20041;-69
2022/06/01 00:04:34;;;;;;;51.60;28.92;;;;;;;23.03;49.05;99845.00;5029324;28;20056;-69
2022/06/01 00:07:07;;;;;;;56.15;30.83;;;;;;;22.79;48.69;99815.41;5030156;28;20041;-69
2022/06/01 00:09:33;;;;;;;46.97;29.05;;;;;;;22.93;48.88;99854.78;5029713;28;20055;-68
2022/06/01 00:11:58;;;;;;;47.03;27.13;;;;;;;22.91;49.06;99862.31;5029652;28;21010;-68
2022/06/01 00:14:24;;;;;;;51.70;30.15;;;;;;;22.95;48.92;99858.91;4996550;28;20136;-70
2022/06/01 00:16:55;;;;;;;49.78;29.23;;;;;;;22.99;48.83;99862.81;5013105;28;20053;-69
2022/06/01 00:19:21;;;;;;;43.38;26.25;;;;;;;23.11;48.75;99868.25;4997284;28;20037;-69
2022/06/01 00:24:31;;;;;;;49.25;29.45;;;;;;;23.06;49.05;99871.63;4998954;28;20063;-69
2022/06/01 00:26:56;;;;;;;50.45;28.80;;;;;;;22.90;49.49;99858.78;4996494;28;20067;-67
2022/06/01 00:29:23;;;;;;;41.10;24.63;;;;;;;23.13;48.93;99882.38;4996437;28;20037;-69
2022/06/01 00:31:48;;;;;;;67.72;31.08;;;;;;;23.04;48.88;99853.97;5029355;28;20046;-69
2022/06/01 00:34:14;;;;;;;44.22;26.75;;;;;;;23.23;48.80;99886.16;5029217;28;20044;-69
2022/06/01 00:36:40;;;;;;;54.15;31.05;;;;;;;23.37;48.71;99881.41;5029488;28;20487;-69
2022/06/01 00:39:05;;;;;;;46.40;29.27;;;;;;;23.38;48.47;99877.63;5029263;28;20419;-69
2022/06/01 00:41:31;;;;;;;64.32;33.33;;;;;;;23.50;48.29;99869.47;5029431;28;20410;-70
2022/06/01 00:43:57;;;;;;;49.95;28.73;;;;;;;23.53;48.12;99882.56;5012658;28;20037;-70
2022/06/01 00:46:24;;;;;;;52.38;30.02;;;;;;;23.55;48.07;99885.88;4996352;28;20053;-69
2022/06/01 00:48:53;;;;;;;61.50;31.25;;;;;;;23.70;48.22;99888.94;5029169;28;20146;-69
2022/06/01 00:51:23;;;;;;;56.53;30.42;;;;;;;23.24;48.10;99802.97;5012286;28;20049;-69
2022/06/01 00:53:49;;;;;;;69.35;34.42;;;;;;;23.62;48.55;99886.59;5030151;28;20046;-70
2022/06/01 00:56:19;;;;;;;66.45;34.45;;;;;;;23.75;48.15;99897.19;4996141;28;20057;-70
2022/06/01 00:58:46;;;;;;;65.45;34.40;;;;;;;23.67;48.18;99865.00;5018041;28;20056;-69
2022/06/01 01:01:14;;;;;;;60.08;32.60;;;;;;;23.89;47.86;99883.16;5019251;28;20048;-70
2022/06/01 01:03:42;;;;;;;68.40;34.92;;;;;;;23.82;48.32;99895.19;5019048;28;20135;-70
2022/06/01 01:06:13;;;;;;;56.42;30.58;;;;;;;23.91;47.62;99886.44;5019128;28;20124;-70
2022/06/01 01:08:40;;;;;;;54.08;30.05;;;;;;;23.83;48.02;99885.97;5035723;28;20140;-69
2022/06/01 01:11:11;;;;;;;56.35;30.42;;;;;;;23.91;47.76;99891.06;5002406;28;20045;-70
2022/06/01 01:13:39;;;;;;;69.93;34.05;;;;;;;23.73;47.73;99864.88;5018889;28;20052;-69
2022/06/01 01:16:04;;;;;;;68.82;33.50;;;;;;;23.82;47.96;99898.72;5051976;28;20045;-70
2022/06/01 01:18:36;;;;;;;69.93;32.70;;;;;;;24.00;47.71;99895.09;5051786;28;20083;-69
2022/06/01 01:21:33;;;;;;;69.80;32.80;;;;;;;24.07;47.26;99899.31;5035384;28;20053;-70
2022/06/01 01:24:13;;;;;;;73.38;32.75;;;;;;;24.16;47.45;99902.47;5035327;28;20085;-69
2022/06/01 01:26:40;;;;;;;60.03;29.48;;;;;;;24.09;47.43;99899.06;5035128;28;20045;-69
2022/06/01 01:29:09;;;;;;;66.35;31.95;;;;;;;23.96;47.81;99877.59;5018963;28;20056;-70
2022/06/01 01:31:36;;;;;;;69.50;32.42;;;;;;;23.94;47.56;99866.97;5036508;28;20561;-70
2022/06/01 01:34:02;;;;;;;60.10;30.85;;;;;;;24.09;47.20;99893.66;5051790;28;20044;-69
2022/06/01 01:36:34;;;;;;;69.90;32.58;;;;;;;24.30;47.17;99896.53;5051689;28;20068;-68
2022/06/01 01:39:09;;;;;;;72.72;34.38;;;;;;;24.34;47.34;99899.63;5018695;28;20503;-69
2022/06/01 01:41:47;;;;;;;70.43;32.72;;;;;;;24.30;47.13;99903.84;5034865;28;20095;-69
2022/06/01 01:44:28;;;;;;;56.55;28.73;;;;;;;24.13;47.24;99903.78;5051423;28;20049;-69
2022/06/01 01:46:56;;;;;;;61.00;31.23;;;;;;;24.24;47.25;99893.97;5034934;28;20049;-69
2022/06/01 01:49:24;;;;;;;60.17;30.70;;;;;;;24.29;47.00;99896.78;5034996;28;20037;-68
2022/06/01 01:51:52;;;;;;;62.60;31.08;;;;;;;24.17;46.80;99885.13;5018275;28;20341;-69
2022/06/01 01:54:23;;;;;;;60.85;32.05;;;;;;;24.20;47.06;99909.88;5035178;28;20041;-70
2022/06/01 01:56:58;;;;;;;67.50;32.30;;;;;;;24.41;46.89;99900.28;5036208;28;20049;-69
2022/06/01 02:00:01;;;;;;;56.67;30.88;;;;;;;24.51;46.85;99903.19;5018206;28;20041;-69
2022/06/01 02:02:51;;;;;;;61.15;30.80;;;;;;;24.47;46.81;99899.31;5034735;28;20111;-69
2022/06/01 02:08:35;;;;;;;62.15;30.38;;;;;;;24.55;46.68;99901.66;5034590;28;19975;-68
2022/06/01 02:13:59;;;;;;;57.72;30.50;;;;;;;24.64;46.54;99909.19;5017930;28;19925;-70
2022/06/01 02:16:27;;;;;;;63.85;32.08;;;;;;;24.59;46.44;99902.81;5031424;28;20049;-69
2022/06/01 02:18:55;;;;;;;53.17;29.73;;;;;;;24.62;46.28;99905.88;5014992;28;20498;-68
2022/06/01 02:21:25;;;;;;;57.38;31.25;;;;;;;24.64;46.38;99905.63;5032529;28;20046;-67
2022/06/01 02:23:52;;;;;;;60.03;32.45;;;;;;;24.67;46.32;99903.31;5015047;28;20083;-68
2022/06/01 02:26:18;;;;;;;54.97;30.63;;;;;;;24.74;46.15;99903.13;5031456;28;20037;-69
2022/06/01 02:28:47;;;;;;;54.63;31.40;;;;;;;24.75;46.14;99893.94;5015695;28;20102;-69
2022/06/01 02:31:15;;;;;;;52.10;31.15;;;;;;;24.93;45.95;99904.59;5015427;28;20107;-69
2022/06/01 02:33:41;;;;;;;56.03;31.27;;;;;;;24.98;45.85;99901.97;5048007;28;20068;-68
2022/06/01 02:36:08;;;;;;;58.35;35.55;;;;;;;25.06;45.60;99906.19;5014861;28;20115;-69
2022/06/01 02:38:41;;;;;;;65.88;33.40;;;;;;;24.87;45.55;99878.41;5030970;28;20395;-70
2022/06/01 02:42:25;;;;;;;56.30;33.00;;;;;;;24.97;45.73;99897.59;5031314;28;20877;-70
2022/06/01 02:43:56;;;;;;;56.70;32.22;;;;;;;24.95;45.52;99894.31;5032166;28;20049;-70
2022/06/01 02:46:22;;;;;;;60.00;32.55;;;;;;;25.00;45.47;99899.84;5032527;28;20049;-70
2022/06/01 02:48:47;;;;;;;56.38;31.67;;;;;;;24.99;45.72;99900.88;4998483;28;20514;-71
2022/06/01 02:51:15;;;;;;;51.65;30.90;;;;;;;25.08;45.37;99904.06;5030872;28;20064;-70
2022/06/01 02:53:41;;;;;;;52.13;30.83;;;;;;;25.09;45.27;99905.69;5032052;28;20088;-69
2022/06/01 02:56:07;;;;;;;52.33;32.08;;;;;;;25.02;44.98;99873.22;4998017;28;20072;-70
2022/06/01 02:58:34;;;;;;;52.95;32.95;;;;;;;25.26;44.85;99901.94;5030676;28;20148;-69
2022/06/01 03:01:00;;;;;;;52.65;32.45;;;;;;;25.22;45.02;99900.75;5014214;28;20045;-70
2022/06/01 03:03:25;;;;;;;50.38;30.63;;;;;;;25.30;44.92;99908.50;4981827;28;20058;-68
2022/06/01 03:05:51;;;;;;;49.85;31.63;;;;;;;25.47;44.44;99905.81;5006609;28;20050;-71
2022/06/01 03:08:17;;;;;;;46.25;29.30;;;;;;;25.49;44.70;99907.22;4990006;28;20057;-71
2022/06/01 03:10:44;;;;;;;51.35;31.27;;;;;;;25.57;43.94;99895.09;4973618;28;20049;-72
2022/06/01 03:13:11;;;;;;;47.50;30.15;;;;;;;25.81;43.66;99904.72;5005995;28;20042;-70
2022/06/01 03:15:37;;;;;;;45.70;27.90;;;;;;;25.81;43.66;99911.00;4990619;28;20393;-70
2022/06/01 03:18:03;;;;;;;43.72;28.85;;;;;;;25.72;43.83;99912.50;4974043;28;20049;-71
2022/06/01 03:20:29;;;;;;;50.58;33.03;;;;;;;25.84;43.45;99909.66;4957531;28;20054;-71
2022/06/01 03:22:57;;;;;;;48.97;32.58;;;;;;;25.87;43.64;99896.38;4972797;28;20121;-70
2022/06/01 03:25:23;;;;;;;50.95;31.90;;;;;;;25.91;43.35;99904.84;4989738;28;20409;-70
2022/06/01 03:27:50;;;;;;;48.63;32.92;;;;;;;26.03;43.19;99906.41;4958050;28;20045;-70
2022/06/01 03:30:17;;;;;;;54.20;33.58;;;;;;;26.30;43.09;99910.06;5005891;28;20044;-71
2022/06/01 03:32:45;;;;;;;48.90;30.80;;;;;;;25.98;43.23;99911.78;4973436;28;20043;-70
2022/06/01 03:35:12;;;;;;;48.90;32.03;;;;;;;25.96;43.36;99911.19;4989575;28;20136;-70
2022/06/01 03:37:38;;;;;;;49.85;31.67;;;;;;;25.85;43.31;99909.41;4957167;28;20567;-70
2022/06/01 03:40:05;;;;;;;52.58;33.88;;;;;;;25.81;43.50;99904.72;4973230;28;20145;-70
2022/06/01 03:42:32;;;;;;;53.45;32.42;;;;;;;25.85;42.62;99884.91;4990713;28;20050;-71
2022/06/01 03:47:42;;;;;;;50.95;31.40;;;;;;;26.19;42.25;99913.72;4989815;28;20080;-71
2022/06/01 03:50:09;;;;;;;53.05;31.70;;;;;;;26.00;42.60;99917.81;4957110;28;20078;-71
2022/06/01 03:52:35;;;;;;;48.65;30.25;;;;;;;25.77;42.98;99914.47;4989051;28;20076;-72
2022/06/01 03:55:00;;;;;;;45.72;28.63;;;;;;;25.99;42.79;99908.00;4972858;28;20508;-72
2022/06/01 03:57:29;;;;;;;41.60;26.77;;;;;;;26.05;42.25;99919.78;4972863;28;20060;-71
2022/06/01 03:59:55;;;;;;;46.13;25.70;;;;;;;26.20;41.87;99920.00;4990378;28;20500;-72
2022/06/01 04:02:21;;;;;;;36.40;25.08;;;;;;;26.26;41.67;99914.34;4970962;28;20073;-71
2022/06/01 04:04:46;;;;;;;39.38;25.35;;;;;;;26.58;40.73;99909.03;4975646;28;20049;-72
2022/06/01 04:07:12;;;;;;;33.50;22.20;;;;;;;26.53;40.79;99914.41;5008630;28;20045;-69
2022/06/01 04:09:38;;;;;;;35.78;22.52;;;;;;;26.54;40.89;99917.97;4992307;28;20041;-72
2022/06/01 04:12:06;;;;;;;38.85;23.15;;;;;;;26.72;40.35;99918.50;5008061;28;20045;-72
2022/06/01 04:14:32;;;;;;;33.63;21.02;;;;;;;26.55;40.25;99915.00;5008519;28;20037;-72
2022/06/01 04:16:58;;;;;;;30.90;20.13;;;;;;;26.74;39.76;99920.97;4992120;28;20046;-73
2022/06/01 04:19:23;;;;;;;27.45;18.65;;;;;;;26.79;39.64;99921.00;4991963;28;20045;-73
2022/06/01 04:21:52;;;;;;;28.15;18.15;;;;;;;27.06;38.99;99919.09;4976007;28;20495;-72
2022/06/01 04:24:19;;;;;;;27.95;17.38;;;;;;;27.01;38.63;99911.72;4976342;28;20045;-72
2022/06/01 04:26:45;;;;;;;26.90;16.25;;;;;;;27.05;38.28;99928.34;4974674;28;20045;-72
2022/06/01 04:29:11;;;;;;;26.48;16.40;;;;;;;27.16;38.22;99925.47;4991640;28;20097;-72
2022/06/01 04:31:37;;;;;;;26.17;16.75;;;;;;;27.00;38.58;99890.94;5008877;28;20050;-73
2022/06/01 04:34:04;;;;;;;22.95;14.65;;;;;;;27.00;37.96;99899.13;4991964;28;20053;-72
2022/06/01 04:36:30;;;;;;;25.85;14.38;;;;;;;27.22;38.08;99926.34;5009491;28;20052;-72
2022/06/01 04:38:56;;;;;;;21.27;14.13;;;;;;;27.17;38.36;99927.13;4959607;28;20046;-73
2022/06/01 04:41:21;;;;;;;27.27;15.23;;;;;;;27.22;38.18;99934.53;5008520;28;20076;-73
2022/06/01 04:43:47;;;;;;;19.75;13.05;;;;;;;27.26;37.83;99935.69;4975275;28;20053;-72
2022/06/01 04:46:13;;;;;;;20.48;12.40;;;;;;;27.23;37.80;99936.19;4975487;28;20709;-72
2022/06/01 04:48:39;;;;;;;18.40;11.15;;;;;;;27.30;37.76;99942.25;4975777;28;20513;-72
2022/06/01 04:51:05;;;;;;;16.58;10.55;;;;;;;27.57;36.79;99943.06;4959579;28;20037;-72
2022/06/01 04:53:31;;;;;;;21.70;10.80;;;;;;;27.60;36.72;99945.28;4991839;28;20483;-72
2022/06/01 04:55:57;;;;;;;19.35;9.73;;;;;;;27.78;35.98;99936.66;4975385;28;20042;-72
2022/06/01 04:58:23;;;;;;;17.02;8.95;;;;;;;27.66;36.37;99931.38;4975739;28;20207;-74
2022/06/01 05:00:49;;;;;;;12.93;8.00;;;;;;;27.77;35.72;99933.09;4992115;28;20049;-73
2022/06/01 05:03:15;;;;;;;12.20;7.30;;;;;;;27.88;35.68;99923.09;4959166;28;20038;-74
2022/06/01 05:05:41;;;;;;;14.32;7.40;;;;;;;27.99;35.41;99942.03;5008300;28;20049;-74
2022/06/01 05:08:09;;;;;;;19.63;7.38;;;;;;;28.21;35.01;99938.31;4991861;28;20041;-72
2022/06/01 05:10:35;;;;;;;14.43;7.47;;;;;;;28.29;34.69;99938.66;5008002;28;20046;-72
2022/06/01 05:13:02;;;;;;;15.02;6.78;;;;;;;28.30;34.93;99944.91;5006976;28;20507;-73
2022/06/01 05:15:27;;;;;;;14.63;6.82;;;;;;;28.48;34.31;99941.75;4991396;28;20514;-72
2022/06/01 05:17:53;;;;;;;16.25;6.20;;;;;;;28.66;33.94;99936.63;4992068;28;20037;-74
2022/06/01 05:20:19;;;;;;;18.05;6.20;;;;;;;28.60;33.72;99937.69;4975718;28;20042;-73
2022/06/01 05:22:45;;;;;;;16.30;6.70;;;;;;;28.54;33.45;99933.31;4991268;28;20050;-73
2022/06/01 05:25:11;;;;;;;9.55;5.68;;;;;;;28.75;33.23;99926.84;4975074;28;20096;-73
2022/06/01 05:27:37;;;;;;;12.75;5.90;;;;;;;28.80;33.14;99918.63;4991383;28;20084;-73
2022/06/01 05:30:04;;;;;;;16.08;6.18;;;;;;;28.87;32.93;99921.94;4959648;28;20452;-73
2022/06/01 05:32:30;;;;;;;10.75;6.03;;;;;;;28.84;32.54;99927.13;5007925;28;20073;-73
2022/06/01 05:34:57;;;;;;;13.32;5.80;;;;;;;28.76;32.54;99892.94;4991916;28;20042;-73
2022/06/01 05:37:22;;;;;;;12.60;5.38;;;;;;;29.06;31.89;99906.66;4975643;28;20052;-73
2022/06/01 05:39:48;;;;;;;9.27;4.80;;;;;;;28.97;31.35;99905.53;4975391;28;20042;-73
2022/06/01 05:42:14;;;;;;;8.77;4.97;;;;;;;28.84;31.62;99914.28;4975147;28;20142;-73
2022/06/01 05:44:40;;;;;;;11.93;5.38;;;;;;;29.08;31.20;99907.22;4960529;28;20095;-73
2022/06/01 05:47:05;;;;;;;18.13;5.22;;;;;;;28.85;31.78;99893.19;4995180;28;20045;-75
2022/06/01 05:49:31;;;;;;;10.13;4.88;;;;;;;28.87;31.73;99913.75;5032289;28;20045;-74
2022/06/01 05:51:57;;;;;;;15.98;5.53;;;;;;;28.99;31.85;99894.31;5002364;28;20442;-74
2022/06/01 05:54:23;;;;;;;14.82;4.82;;;;;;;29.14;31.20;99911.63;4986529;28;20063;-75
2022/06/01 05:56:49;;;;;;;11.82;4.95;;;;;;;29.20;31.22;99905.06;5020309;28;20490;-72
2022/06/01 05:59:16;;;;;;;14.35;5.47;;;;;;;29.45;31.52;99924.22;5020364;28;20049;-75
2022/06/01 06:01:41;;;;;;;10.32;5.40;;;;;;;29.38;31.29;99906.44;5017904;28;20140;-73
2022/06/01 06:04:07;;;;;;;8.93;4.65;;;;;;;29.43;31.17;99909.19;5010608;28;20136;-73
2022/06/01 06:06:33;;;;;;;13.77;4.97;;;;;;;29.54;30.71;99897.94;4978504;28;20463;-73
2022/06/01 06:09:02;;;;;;;7.38;3.65;;;;;;;29.79;29.40;99888.06;4978389;28;20180;-72
2022/06/01 06:11:31;;;;;;;11.27;4.55;;;;;;;29.96;29.26;99903.09;5021290;28;20044;-74
2022/06/01 06:13:58;;;;;;;14.23;4.47;;;;;;;29.88;29.17;99894.63;5007435;28;20041;-73
2022/06/01 06:16:24;;;;;;;10.00;4.20;;;;;;;29.85;28.60;99893.25;4998338;28;20513;-75
2022/06/01 06:18:51;;;;;;;11.82;4.47;;;;;;;29.77;28.06;99887.53;5014884;28;20092;-74
2022/06/01 06:21:19;;;;;;;6.82;4.10;;;;;;;30.07;28.51;99896.50;5046877;28;20045;-74
2022/06/01 06:23:44;;;;;;;10.98;3.78;;;;;;;29.89;28.33;99890.78;5014083;28;20049;-74
2022/06/01 06:26:10;;;;;;;12.73;3.95;;;;;;;29.99;27.80;99885.28;4997856;28;20564;-73
2022/06/01 06:28:36;;;;;;;10.00;3.78;;;;;;;30.10;27.92;99884.16;5014237;28;20096;-72
2022/06/01 06:31:03;;;;;;;9.40;3.50;;;;;;;29.91;27.11;99820.13;5014170;28;20507;-72
2022/06/01 06:33:31;;;;;;;11.10;4.00;;;;;;;30.55;27.70;99870.28;4990945;28;20074;-73
2022/06/01 06:35:58;;;;;;;12.65;4.80;;;;;;;30.53;27.56;99865.09;4990888;28;20046;-72
2022/06/01 06:38:26;;;;;;;15.50;4.72;;;;;;;30.64;27.32;99876.81;4991229;28;20133;-75
2022/06/01 06:40:54;;;;;;;18.30;6.18;;;;;;;30.88;27.83;99884.09;4975465;28;20038;-74
2022/06/01 06:43:22;;;;;;;9.50;4.38;;;;;;;30.97;27.59;99867.84;4991242;28;20054;-74
2022/06/01 06:45:49;;;;;;;17.98;4.82;;;;;;;31.11;27.41;99874.31;4991120;28;20053;-74
2022/06/01 06:48:15;;;;;;;17.92;5.38;;;;;;;31.15;27.55;99867.97;5007152;28;20042;-73
2022/06/01 06:50:41;;;;;;;17.27;4.50;;;;;;;31.25;26.81;99866.25;4958986;28;20514;-74
2022/06/01 06:53:07;;;;;;;11.25;4.43;;;;;;;31.31;26.59;99865.16;4974581;28;20192;-74
2022/06/01 06:55:32;;;;;;;12.93;4.60;;;;;;;31.50;26.71;99857.81;4957927;28;20046;-74
2022/06/01 06:57:58;;;;;;;9.85;4.28;;;;;;;31.56;25.84;99865.72;4958588;28;20056;-74
2022/06/01 07:00:24;;;;;;;14.48;4.05;;;;;;;31.63;25.65;99849.72;4992557;28;20046;-74
2022/06/01 07:02:51;;;;;;;13.77;3.85;;;;;;;31.94;25.13;99870.28;4993847;28;20165;-74
2022/06/01 07:06:08;;;;;;;10.20;4.15;;;;;;;32.25;25.13;99868.00;4993109;28;20132;-73
2022/06/01 07:08:05;;;;;;;9.13;3.83;;;;;;;32.86;23.11;99865.28;4995652;28;20046;-73
2022/06/01 07:10:31;;;;;;;15.18;4.10;;;;;;;33.06;23.13;99865.00;4977944;28;20092;-73
2022/06/01 07:12:59;;;;;;;9.10;4.00;;;;;;;33.37;21.91;99836.63;4993243;28;20108;-72
2022/06/01 07:15:25;;;;;;;10.00;3.35;;;;;;;33.99;21.73;99863.63;5009492;28;20049;-73
2022/06/01 07:17:51;;;;;;;12.52;3.60;;;;;;;34.52;20.34;99860.34;4976561;28;20085;-73
2022/06/01 07:20:17;;;;;;;10.02;3.35;;;;;;;35.07;20.02;99865.44;4993374;28;20045;-73
2022/06/01 07:22:43;;;;;;;13.68;3.47;;;;;;;35.42;19.83;99845.22;4994655;28;20561;-73
2022/06/01 07:25:09;;;;;;;10.48;3.80;;;;;;;36.30;19.13;99871.03;4977471;28;20439;-73
2022/06/01 07:27:36;;;;;;;17.83;3.75;;;;;;;36.88;18.19;99866.75;5011075;28;20084;-73
2022/06/01 07:30:06;;;;;;;14.63;4.10;;;;;;;37.90;17.02;99863.03;4993758;28;20069;-73
2022/06/01 07:32:32;;;;;;;;;;;;;;;39.02;15.45;99875.13;5010581;28;20108;-73
2022/06/01 07:34:57;;;;;;;5.25;2.97;;;;;;;39.94;15.02;99865.38;4992618;28;19921;-73
2022/06/01 07:43:07;;;;;;;12.20;3.38;;;;;;;44.64;10.88;99874.25;4989068;28;20042;-74
2022/06/01 07:45:35;;;;;;;10.45;2.60;;;;;;;46.77;9.67;99874.06;4981661;28;20110;-74
2022/06/01 07:48:02;;;;;;;7.82;3.00;;;;;;;48.17;8.05;99872.88;4972526;28;20046;-74
2022/06/01 07:50:28;;;;;;;11.48;2.72;;;;;;;49.37;7.10;99862.91;4974441;28;20041;-74
2022/06/01 07:52:53;;;;;;;14.43;2.92;;;;;;;50.43;6.67;99860.91;4960128;28;20050;-75
2022/06/01 07:55:20;;;;;;;10.15;2.42;;;;;;;51.30;6.15;99871.59;4975151;28;20133;-74
2022/06/01 07:57:46;;;;;;;9.88;2.70;;;;;;;52.13;5.69;99859.41;4990779;28;20541;-75
2022/06/01 08:00:12;;;;;;;9.85;2.40;;;;;;;51.39;5.77;99855.72;4993773;28;20046;-74
2022/06/01 08:02:39;;;;;;;12.90;2.60;;;;;;;50.69;5.51;99859.41;4996214;28;20034;-75
2022/06/01 08:05:06;;;;;;;5.80;2.40;;;;;;;50.00;5.55;99845.53;4984701;28;20041;-75
2022/06/01 08:07:33;;;;;;;8.40;2.35;;;;;;;48.93;6.29;99851.41;5010841;28;20876;-75
2022/06/01 08:10:00;;;;;;;10.48;2.97;;;;;;;48.10;6.57;99854.00;4998885;28;20165;-74
2022/06/01 08:15:19;;;;;;;9.20;3.25;;;;;;;48.31;6.33;99836.25;5005445;28;20141;-75
2022/06/01 08:17:47;;;;;;;8.25;2.95;;;;;;;49.88;5.91;99850.88;4991154;28;20065;-75
2022/06/01 08:20:15;;;;;;;;;;;;;;;50.95;5.18;99858.69;5008573;28;20084;-76
2022/06/01 08:22:41;;;;;;;8.85;2.28;;;;;;;51.15;5.54;99856.81;4991956;28;20017;-76
2022/06/01 08:25:09;;;;;;;6.10;2.50;;;;;;;51.44;5.24;99858.06;4991394;28;20508;-75
2022/06/01 08:27:35;;;;;;;6.93;1.90;;;;;;;51.71;4.16;99866.56;4993731;28;20050;-75
2022/06/01 08:30:01;;;;;;;4.03;1.60;;;;;;;52.90;3.69;99872.91;4972102;28;20423;-74
2022/06/01 08:32:29;;;;;;;7.78;1.58;;;;;;;54.24;3.47;99856.41;4972999;28;20058;-72
2022/06/01 08:34:54;;;;;;;6.45;1.50;;;;;;;55.18;3.33;99857.81;4989978;28;20054;-78
2022/06/01 08:37:20;;;;;;;5.80;1.70;;;;;;;55.28;3.30;99853.03;4972579;28;20085;-74
2022/06/01 08:39:48;;;;;;;8.65;1.90;;;;;;;55.83;2.91;99853.31;4956003;28;20046;-75
2022/06/01 08:42:15;;;;;;;8.23;1.80;;;;;;;56.24;2.85;99855.13;4988064;28;20413;-75
2022/06/01 08:44:43;;;;;;;7.95;2.03;;;;;;;56.94;2.53;99849.75;4972144;28;20050;-77
2022/06/01 08:47:52;;;;;;;10.30;2.05;;;;;;;57.83;2.41;99850.66;4971164;28;20096;-75
2022/06/01 08:50:24;;;;;;;9.88;2.58;;;;;;;58.30;2.38;99839.59;4994365;28;20050;-77
2022/06/01 08:52:52;;;;;;;6.35;2.13;;;;;;;58.62;1.83;99841.03;4972880;28;20526;-76
2022/06/01 08:55:18;;;;;;;5.75;2.10;;;;;;;58.77;1.90;99836.25;4987648;28;20046;-75
2022/06/01 08:58:07;;;;;;;10.57;2.30;;;;;;;59.30;1.64;99830.91;4986796;28;20062;-73
2022/06/01 09:00:37;;;;;;;8.43;1.98;;;;;;;58.71;1.80;99829.59;4971508;28;20504;-75
2022/06/01 09:03:43;;;;;;;10.20;1.85;;;;;;;56.98;2.45;99827.53;5004317;28;20526;-74
2022/06/01 09:06:15;;;;;;;9.07;2.10;;;;;;;54.46;3.69;99820.44;4931481;29;20199;-73
2022/06/01 09:08:50;;;;;;;4.72;1.55;;;;;;;51.52;4.69;99787.94;4994271;28;20447;-75
2022/06/01 09:11:33;;;;;;;11.30;2.20;;;;;;;51.87;5.03;99816.50;4990377;28;20092;-74
2022/06/01 09:14:15;;;;;;;11.32;1.80;;;;;;;51.71;4.95;99822.06;5006864;28;20096;-75
2022/06/01 09:16:52;;;;;;;7.88;1.92;;;;;;;50.40;6.04;99802.34;5006548;28;20080;-73
2022/06/01 09:22:37;;;;;;;8.60;1.70;;;;;;;51.23;5.38;99820.72;5010738;28;20064;-75
2022/06/01 09:25:35;;;;;;;9.25;2.47;;;;;;;49.24;6.81;99825.03;4967406;28;20046;-77
2022/06/01 09:28:16;;;;;;;13.18;2.30;;;;;;;47.11;7.74;99815.56;4974385;28;20054;-74
2022/06/01 09:30:45;;;;;;;8.70;2.80;;;;;;;43.45;10.36;99816.22;4943117;28;20081;-75
2022/06/01 09:33:30;;;;;;;5.95;2.58;;;;;;;40.18;13.33;99804.97;4959234;28;20052;-75
2022/06/01 09:36:04;;;;;;;9.90;3.03;;;;;;;39.37;14.21;99811.66;4992500;28;20057;-74
2022/06/01 09:38:51;;;;;;;7.28;2.65;;;;;;;39.53;14.63;99815.47;4990683;28;20038;-74
2022/06/01 09:41:21;;;;;;;6.65;2.65;;;;;;;39.80;14.53;99790.56;4958705;28;20389;-74
2022/06/01 09:43:59;;;;;;;9.77;2.90;;;;;;;40.05;14.53;99813.66;5007370;28;20049;-74
2022/06/01 09:46:35;;;;;;;8.43;3.05;;;;;;;39.98;14.53;99814.25;4991437;28;20046;-73
2022/06/01 09:49:21;;;;;;;9.82;2.95;;;;;;;39.68;14.95;99817.56;5007005;28;20570;-73
2022/06/01 09:51:48;;;;;;;13.52;3.30;;;;;;;39.22;15.35;99813.16;4974564;28;20049;-74
2022/06/01 09:54:20;;;;;;;12.73;3.38;;;;;;;39.01;15.66;99820.72;4991070;28;20500;-73
2022/06/01 09:56:48;;;;;;;8.75;3.20;;;;;;;38.48;16.22;99792.84;5007338;28;20607;-74
2022/06/01 10:08:18;;;;;;;5.35;3.30;;;;;;;35.78;20.07;99815.47;4960365;28;20069;-74
2022/06/01 10:11:05;;;;;;;9.77;3.85;;;;;;;36.02;19.81;99817.88;4974741;28;20053;-74
2022/06/01 10:13:38;;;;;;;8.27;3.40;;;;;;;35.09;20.76;99826.47;4974396;28;20105;-73
2022/06/01 10:16:06;;;;;;;5.95;2.58;;;;;;;34.45;21.26;99824.91;4988217;28;20046;-74
2022/06/01 10:18:33;;;;;;;6.07;2.33;;;;;;;33.70;22.05;99832.75;4974623;28;20046;-73
2022/06/01 10:21:19;;;;;;;9.35;2.90;;;;;;;33.37;23.21;99830.31;4989993;28;20192;-73
2022/06/01 10:23:47;;;;;;;10.35;3.10;;;;;;;32.90;23.83;99812.13;4990241;28;20038;-74
2022/06/01 10:26:23;;;;;;;7.60;2.85;;;;;;;33.84;22.95;99824.50;4974299;28;20046;-74
2022/06/01 10:28:59;;;;;;;4.72;2.50;;;;;;;34.88;21.74;99825.31;4989574;28;20858;-75
2022/06/01 10:31:47;;;;;;;8.00;2.88;;;;;;;35.66;20.77;99840.13;4960612;28;20496;-72
2022/06/01 10:34:19;;;;;;;6.18;2.58;;;;;;;36.59;19.94;99838.03;4958106;28;20054;-73
2022/06/01 10:36:58;;;;;;;11.63;2.75;;;;;;;37.58;18.87;99840.59;4987079;28;20046;-76
2022/06/01 10:39:43;;;;;;;7.78;2.10;;;;;;;38.24;16.60;99851.78;5026349;28;20108;-74
2022/06/01 10:42:19;;;;;;;4.28;1.60;;;;;;;37.56;17.23;99851.19;4977379;28;20049;-73
2022/06/01 10:44:51;;;;;;;5.28;2.35;;;;;;;36.92;18.22;99850.31;5026216;28;20971;-73
2022/06/01 10:47:38;;;;;;;4.88;1.80;;;;;;;37.53;17.56;99849.91;4993445;28;20112;-73
2022/06/01 10:50:18;;;;;;;6.18;2.00;;;;;;;37.94;17.36;99868.72;4977614;28;20049;-75
2022/06/01 10:52:54;;;;;;;11.32;2.40;;;;;;;37.20;18.81;99832.19;5026968;28;20072;-74
2022/06/01 10:55:26;;;;;;;5.22;2.33;;;;;;;37.28;18.99;99856.31;5009663;28;20045;-74
2022/06/01 10:57:53;;;;;;;7.65;2.13;;;;;;;36.77;19.07;99853.53;5010129;28;20054;-73
2022/06/01 11:00:24;;;;;;;8.93;2.05;;;;;;;35.56;20.99;99848.72;4974400;28;20041;-76
2022/06/01 11:03:27;;;;;;;8.95;2.08;;;;;;;35.55;21.25;99863.66;5009164;28;20128;-75
2022/06/01 11:06:17;;;;;;;8.70;2.38;;;;;;;35.15;21.81;99861.09;4991330;28;20085;-74
2022/06/01 11:08:48;;;;;;;8.93;2.40;;;;;;;34.41;22.72;99843.22;5009711;28;20056;-74
2022/06/01 11:11:30;;;;;;;9.02;2.10;;;;;;;34.30;23.33;99863.81;4993046;28;20041;-74
2022/06/01 11:14:18;;;;;;;4.32;2.38;;;;;;;33.73;24.56;99861.63;5009181;28;20085;-74
2022/06/01 11:17:09;;;;;;;6.07;2.80;;;;;;;32.76;26.28;99863.50;5010139;28;20038;-74
2022/06/01 11:19:48;;;;;;;5.72;2.22;;;;;;;31.88;27.49;99859.66;5009239;28;20119;-74
2022/06/01 11:22:25;;;;;;;10.60;3.03;;;;;;;31.20;28.98;99855.34;4977069;28;20526;-74
2022/06/01 11:25:09;;;;;;;13.00;2.83;;;;;;;30.82;29.93;99878.91;5011359;28;20526;-74
2022/06/01 11:27:46;;;;;;;10.10;2.70;;;;;;;30.46;31.07;99866.50;4992978;28;20054;-74
2022/06/01 11:30:21;;;;;;;9.23;2.40;;;;;;;30.75;30.82;99868.25;4976918;28;20045;-74
2022/06/01 11:32:55;;;;;;;15.52;3.38;;;;;;;30.93;31.21;99873.09;4992527;28;20585;-74
2022/06/01 11:35:58;;;;;;;5.75;2.35;;;;;;;31.29;30.40;99870.94;4973446;28;20046;-74
2022/06/01 11:38:41;;;;;;;4.57;2.35;;;;;;;31.15;30.87;99865.22;4917963;29;20063;-74
2022/06/01 11:41:20;;;;;;;8.60;2.40;;;;;;;31.07;30.81;99867.78;5001204;28;20606;-73
2022/06/01 11:43:58;;;;;;;7.45;2.20;;;;;;;30.91;30.89;99858.00;4973020;28;20049;-73
2022/06/01 11:46:45;;;;;;;3.53;2.03;;;;;;;30.88;30.74;99845.69;4975194;28;20115;-74
2022/06/01 11:49:31;;;;;;;12.82;2.15;;;;;;;30.43;31.33;99845.13;4965901;28;20050;-74
2022/06/01 11:52:16;;;;;;;3.33;1.60;;;;;;;30.38;31.65;99845.16;4988842;28;20042;-72
2022/06/01 11:54:42;;;;;;;9.93;2.20;;;;;;;30.65;31.02;99857.34;4989659;28;20076;-73
2022/06/01 11:57:27;;;;;;;5.85;1.90;;;;;;;30.15;31.83;99854.84;4972969;28;20420;-73
2022/06/01 12:00:15;;;;;;;5.80;2.08;;;;;;;30.24;32.07;99866.03;5004565;28;20053;-72
2022/06/01 12:02:41;;;;;;;3.28;1.60;;;;;;;29.88;32.59;99859.00;4990910;28;20520;-71
2022/06/01 12:05:12;;;;;;;6.05;1.90;;;;;;;30.37;32.34;99873.69;4960410;28;20084;-74
2022/06/01 12:07:45;;;;;;;4.60;2.00;;;;;;;30.14;33.34;99864.13;4992838;28;20042;-73
2022/06/01 12:10:27;;;;;;;8.52;1.95;;;;;;;30.21;33.31;99847.44;4976205;28;20136;-73
2022/06/01 12:12:55;;;;;;;4.78;2.08;;;;;;;30.52;32.68;99862.63;4992259;28;20574;-74
2022/06/01 12:15:32;;;;;;;7.60;2.00;;;;;;;30.13;32.42;99865.25;4976182;28;20076;-74